sensor_id;sensor_type;location;lat;lon;timestamp;P1;durP1;ratioP1;P2;durP2;ratioP2
17832;SDS011;9041;49.718;21.798;2022-08-21T16:48:55;7.80;;;5.50;;
17832;SDS011;9041;49.718;21.798;2022-08-21T16:51:22;7.75;;;5.43;;
17832;SDS011;9041;49.718;21.798;2022-08-21T16:53:49;7.72;;;5.55;;
17832;SDS011;9041;49.718;21.798;2022-08-21T16:56:20;7.40;;;5.43;;
17832;SDS011;9041;49.718;21.798;2022-08-21T16:58:48;12.38;;;5.40;;
17832;SDS011;9041;49.718;21.798;2022-08-21T17:01:16;9.02;;;5.70;;
17832;SDS011;9041;49.718;21.798;2022-08-21T17:03:46;14.05;;;5.13;;
17832;SDS011;9041;49.718;21.798;2022-08-21T17:06:17;8.05;;;5.22;;
17832;SDS011;9041;49.718;21.798;2022-08-21T17:08:45;7.43;;;5.13;;
17832;SDS011;9041;49.718;21.798;2022-08-21T17:11:19;7.93;;;5.15;;
17832;SDS011;9041;49.718;21.798;2022-08-21T17:13:47;11.73;;;5.22;;
17832;SDS011;9041;49.718;21.798;2022-08-21T17:16:15;12.38;;;5.25;;
17832;SDS011;9041;49.718;21.798;2022-08-21T17:18:42;12.90;;;5.35;;
17832;SDS011;9041;49.718;21.798;2022-08-21T17:21:10;6.88;;;4.65;;
17832;SDS011;9041;49.718;21.798;2022-08-21T17:23:42;11.18;;;5.45;;
17832;SDS011;9041;49.718;21.798;2022-08-21T17:26:09;12.30;;;5.93;;
17832;SDS011;9041;49.718;21.798;2022-08-21T17:28:36;7.88;;;5.70;;
17832;SDS011;9041;49.718;21.798;2022-08-21T17:31:04;9.50;;;5.72;;
17832;SDS011;9041;49.718;21.798;2022-08-21T17:33:34;11.82;;;5.50;;
17832;SDS011;9041;49.718;21.798;2022-08-21T17:36:04;8.48;;;5.10;;
17832;SDS011;9041;49.718;21.798;2022-08-21T17:38:32;8.82;;;5.40;;
17832;SDS011;9041;49.718;21.798;2022-08-21T17:41:00;12.93;;;5.35;;
17832;SDS011;9041;49.718;21.798;2022-08-21T17:43:27;11.13;;;5.38;;
17832;SDS011;9041;49.718;21.798;2022-08-21T17:45:54;10.18;;;5.75;;
17832;SDS011;9041;49.718;21.798;2022-08-21T17:48:21;9.60;;;5.35;;
17832;SDS011;9041;49.718;21.798;2022-08-21T17:50:53;9.95;;;6.05;;
17832;SDS011;9041;49.718;21.798;2022-08-21T17:53:23;7.78;;;5.63;;
17832;SDS011;9041;49.718;21.798;2022-08-21T17:55:50;8.02;;;5.68;;
17832;SDS011;9041;49.718;21.798;2022-08-21T17:58:23;7.78;;;5.20;;
17832;SDS011;9041;49.718;21.798;2022-08-21T18:00:50;9.82;;;5.72;;
17832;SDS011;9041;49.718;21.798;2022-08-21T18:03:18;8.60;;;5.80;;
17832;SDS011;9041;49.718;21.798;2022-08-21T18:05:48;10.25;;;5.45;;
17832;SDS011;9041;49.718;21.798;2022-08-21T18:08:17;8.65;;;6.20;;
17832;SDS011;9041;49.718;21.798;2022-08-21T18:10:45;12.68;;;6.15;;
17832;SDS011;9041;49.718;21.798;2022-08-21T18:13:14;11.63;;;5.93;;
17832;SDS011;9041;49.718;21.798;2022-08-21T18:15:45;9.05;;;5.82;;
17832;SDS011;9041;49.718;21.798;2022-08-21T18:18:13;13.30;;;6.53;;
17832;SDS011;9041;49.718;21.798;2022-08-21T18:20:41;12.30;;;6.75;;
17832;SDS011;9041;49.718;21.798;2022-08-21T18:23:08;16.08;;;7.40;;
17832;SDS011;9041;49.718;21.798;2022-08-21T18:25:35;12.45;;;6.95;;
17832;SDS011;9041;49.718;21.798;2022-08-21T18:28:12;15.02;;;7.40;;
17832;SDS011;9041;49.718;21.798;2022-08-21T18:30:39;11.75;;;6.75;;
17832;SDS011;9041;49.718;21.798;2022-08-21T18:33:09;14.48;;;7.18;;
17832;SDS011;9041;49.718;21.798;2022-08-21T18:35:37;12.25;;;6.50;;
17832;SDS011;9041;49.718;21.798;2022-08-21T18:38:06;10.32;;;6.63;;
17832;SDS011;9041;49.718;21.798;2022-08-21T18:40:34;9.32;;;6.10;;
17832;SDS011;9041;49.718;21.798;2022-08-21T18:43:05;8.52;;;6.32;;
17832;SDS011;9041;49.718;21.798;2022-08-21T18:45:38;10.20;;;6.20;;
17832;SDS011;9041;49.718;21.798;2022-08-21T18:48:07;11.38;;;6.43;;
17832;SDS011;9041;49.718;21.798;2022-08-21T18:50:37;9.15;;;6.10;;
17832;SDS011;9041;49.718;21.798;2022-08-21T18:53:13;15.07;;;7.18;;
17832;SDS011;9041;49.718;21.798;2022-08-21T18:55:41;15.77;;;8.52;;
17832;SDS011;9041;49.718;21.798;2022-08-21T18:58:10;11.50;;;7.32;;
17832;SDS011;9041;49.718;21.798;2022-08-21T19:00:40;13.70;;;6.75;;
17832;SDS011;9041;49.718;21.798;2022-08-21T19:03:19;11.98;;;7.63;;
17832;SDS011;9041;49.718;21.798;2022-08-21T19:05:47;15.85;;;8.38;;
17832;SDS011;9041;49.718;21.798;2022-08-21T19:08:18;16.17;;;10.23;;
17832;SDS011;9041;49.718;21.798;2022-08-21T19:10:47;16.92;;;9.95;;
17832;SDS011;9041;49.718;21.798;2022-08-21T19:13:17;16.15;;;9.85;;
17832;SDS011;9041;49.718;21.798;2022-08-21T19:15:46;21.73;;;11.25;;
17832;SDS011;9041;49.718;21.798;2022-08-21T19:18:19;22.70;;;11.90;;
17832;SDS011;9041;49.718;21.798;2022-08-21T19:20:49;17.73;;;11.15;;
17832;SDS011;9041;49.718;21.798;2022-08-21T19:23:17;18.95;;;11.60;;
17832;SDS011;9041;49.718;21.798;2022-08-21T19:25:49;16.60;;;10.57;;
17832;SDS011;9041;49.718;21.798;2022-08-21T19:28:21;14.95;;;10.23;;
17832;SDS011;9041;49.718;21.798;2022-08-21T19:30:55;16.48;;;10.27;;
17832;SDS011;9041;49.718;21.798;2022-08-21T19:33:26;15.10;;;9.90;;
17832;SDS011;9041;49.718;21.798;2022-08-21T19:35:58;15.52;;;10.07;;
17832;SDS011;9041;49.718;21.798;2022-08-21T19:38:26;14.77;;;9.73;;
17832;SDS011;9041;49.718;21.798;2022-08-21T19:41:00;20.95;;;10.95;;
17832;SDS011;9041;49.718;21.798;2022-08-21T19:43:29;17.83;;;10.30;;
17832;SDS011;9041;49.718;21.798;2022-08-21T19:45:57;19.02;;;10.52;;
17832;SDS011;9041;49.718;21.798;2022-08-21T19:48:28;16.98;;;9.82;;
17832;SDS011;9041;49.718;21.798;2022-08-21T19:50:55;23.85;;;12.38;;
17832;SDS011;9041;49.718;21.798;2022-08-21T19:53:22;19.85;;;12.07;;
17832;SDS011;9041;49.718;21.798;2022-08-21T19:55:50;17.20;;;10.18;;
17832;SDS011;9041;49.718;21.798;2022-08-21T19:58:21;20.02;;;11.73;;
17832;SDS011;9041;49.718;21.798;2022-08-21T20:00:53;19.92;;;12.75;;
17832;SDS011;9041;49.718;21.798;2022-08-21T20:03:20;17.05;;;10.13;;
17832;SDS011;9041;49.718;21.798;2022-08-21T20:05:51;21.52;;;11.68;;
17832;SDS011;9041;49.718;21.798;2022-08-21T20:08:20;18.45;;;10.48;;
17832;SDS011;9041;49.718;21.798;2022-08-21T20:10:50;16.23;;;10.05;;
17832;SDS011;9041;49.718;21.798;2022-08-21T20:13:18;20.30;;;11.38;;
17832;SDS011;9041;49.718;21.798;2022-08-21T20:15:46;23.60;;;14.73;;
17832;SDS011;9041;49.718;21.798;2022-08-21T20:18:14;27.27;;;15.05;;
17832;SDS011;9041;49.718;21.798;2022-08-21T20:20:42;18.83;;;11.32;;
17832;SDS011;9041;49.718;21.798;2022-08-21T20:23:13;17.27;;;10.63;;
17832;SDS011;9041;49.718;21.798;2022-08-21T20:25:43;14.43;;;10.18;;
17832;SDS011;9041;49.718;21.798;2022-08-21T20:28:16;22.40;;;11.90;;
17832;SDS011;9041;49.718;21.798;2022-08-21T20:30:44;19.90;;;10.52;;
17832;SDS011;9041;49.718;21.798;2022-08-21T20:33:15;18.60;;;10.80;;
17832;SDS011;9041;49.718;21.798;2022-08-21T20:35:44;16.80;;;10.35;;
17832;SDS011;9041;49.718;21.798;2022-08-21T20:38:16;19.08;;;10.95;;
17832;SDS011;9041;49.718;21.798;2022-08-21T20:40:43;20.25;;;11.13;;
17832;SDS011;9041;49.718;21.798;2022-08-21T20:43:12;17.95;;;10.80;;
17832;SDS011;9041;49.718;21.798;2022-08-21T20:45:40;17.75;;;11.25;;
17832;SDS011;9041;49.718;21.798;2022-08-21T20:48:08;21.30;;;11.60;;
17832;SDS011;9041;49.718;21.798;2022-08-21T20:50:38;23.15;;;11.50;;
17832;SDS011;9041;49.718;21.798;2022-08-21T20:53:11;23.50;;;11.90;;
17832;SDS011;9041;49.718;21.798;2022-08-21T20:55:42;20.85;;;11.80;;
17832;SDS011;9041;49.718;21.798;2022-08-21T20:58:12;19.95;;;12.13;;
17832;SDS011;9041;49.718;21.798;2022-08-21T21:00:52;20.77;;;12.15;;
17832;SDS011;9041;49.718;21.798;2022-08-21T21:03:20;19.88;;;12.40;;
17832;SDS011;9041;49.718;21.798;2022-08-21T21:05:51;19.42;;;12.43;;
17832;SDS011;9041;49.718;21.798;2022-08-21T21:08:21;23.45;;;14.43;;
17832;SDS011;9041;49.718;21.798;2022-08-21T21:10:53;23.67;;;13.40;;
17832;SDS011;9041;49.718;21.798;2022-08-21T21:13:23;24.15;;;13.73;;
17832;SDS011;9041;49.718;21.798;2022-08-21T21:15:53;24.20;;;14.20;;
17832;SDS011;9041;49.718;21.798;2022-08-21T21:18:24;25.92;;;13.90;;
17832;SDS011;9041;49.718;21.798;2022-08-21T21:20:56;27.75;;;14.25;;
17832;SDS011;9041;49.718;21.798;2022-08-21T21:23:26;20.60;;;12.82;;
17832;SDS011;9041;49.718;21.798;2022-08-21T21:26:00;23.30;;;12.10;;
17832;SDS011;9041;49.718;21.798;2022-08-21T21:28:36;20.88;;;11.98;;
17832;SDS011;9041;49.718;21.798;2022-08-21T21:31:08;19.73;;;11.48;;
17832;SDS011;9041;49.718;21.798;2022-08-21T21:33:35;18.80;;;11.00;;
17832;SDS011;9041;49.718;21.798;2022-08-21T21:36:07;18.35;;;11.38;;
17832;SDS011;9041;49.718;21.798;2022-08-21T21:38:41;16.85;;;10.07;;
17832;SDS011;9041;49.718;21.798;2022-08-21T21:41:15;15.52;;;9.73;;
17832;SDS011;9041;49.718;21.798;2022-08-21T21:43:52;14.82;;;9.55;;
17832;SDS011;9041;49.718;21.798;2022-08-21T21:46:30;11.77;;;8.65;;
17832;SDS011;9041;49.718;21.798;2022-08-21T21:49:04;16.13;;;9.07;;
17832;SDS011;9041;49.718;21.798;2022-08-21T21:51:47;17.15;;;9.02;;
17832;SDS011;9041;49.718;21.798;2022-08-21T21:54:26;16.23;;;8.50;;
17832;SDS011;9041;49.718;21.798;2022-08-21T21:57:07;11.73;;;8.60;;
17832;SDS011;9041;49.718;21.798;2022-08-21T21:59:45;17.45;;;9.30;;
17832;SDS011;9041;49.718;21.798;2022-08-21T22:02:16;14.90;;;8.38;;
17832;SDS011;9041;49.718;21.798;2022-08-21T22:04:51;14.75;;;9.10;;
17832;SDS011;9041;49.718;21.798;2022-08-21T22:07:23;14.35;;;9.30;;
17832;SDS011;9041;49.718;21.798;2022-08-21T22:09:55;12.73;;;8.50;;
17832;SDS011;9041;49.718;21.798;2022-08-21T22:12:30;13.13;;;8.63;;
17832;SDS011;9041;49.718;21.798;2022-08-21T22:15:00;15.43;;;8.73;;
17832;SDS011;9041;49.718;21.798;2022-08-21T22:17:33;14.82;;;8.95;;
17832;SDS011;9041;49.718;21.798;2022-08-21T22:20:04;13.00;;;8.60;;
17832;SDS011;9041;49.718;21.798;2022-08-21T22:22:37;14.25;;;8.48;;
17832;SDS011;9041;49.718;21.798;2022-08-21T22:25:14;14.60;;;8.20;;
17832;SDS011;9041;49.718;21.798;2022-08-21T22:27:44;15.18;;;8.80;;
17832;SDS011;9041;49.718;21.798;2022-08-21T22:30:14;15.00;;;8.15;;
17832;SDS011;9041;49.718;21.798;2022-08-21T22:32:43;14.35;;;8.30;;
17832;SDS011;9041;49.718;21.798;2022-08-21T22:35:14;12.63;;;7.70;;
17832;SDS011;9041;49.718;21.798;2022-08-21T22:37:46;12.45;;;7.13;;
17832;SDS011;9041;49.718;21.798;2022-08-21T22:40:19;14.35;;;7.85;;
17832;SDS011;9041;49.718;21.798;2022-08-21T22:43:00;13.15;;;7.07;;
17832;SDS011;9041;49.718;21.798;2022-08-21T22:45:29;13.45;;;6.68;;
17832;SDS011;9041;49.718;21.798;2022-08-21T22:48:01;15.75;;;6.78;;
17832;SDS011;9041;49.718;21.798;2022-08-21T22:50:31;11.40;;;6.47;;
17832;SDS011;9041;49.718;21.798;2022-08-21T22:53:00;9.57;;;6.00;;
17832;SDS011;9041;49.718;21.798;2022-08-21T22:55:32;9.18;;;6.43;;
17832;SDS011;9041;49.718;21.798;2022-08-21T22:58:04;11.73;;;6.30;;
17832;SDS011;9041;49.718;21.798;2022-08-21T23:00:36;10.75;;;6.55;;
17832;SDS011;9041;49.718;21.798;2022-08-21T23:03:07;12.27;;;6.72;;
17832;SDS011;9041;49.718;21.798;2022-08-21T23:05:34;9.70;;;5.90;;
17832;SDS011;9041;49.718;21.798;2022-08-21T23:08:13;8.57;;;5.35;;
17832;SDS011;9041;49.718;21.798;2022-08-21T23:10:43;9.32;;;4.95;;
17832;SDS011;9041;49.718;21.798;2022-08-21T23:13:16;9.02;;;5.40;;
17832;SDS011;9041;49.718;21.798;2022-08-21T23:15:44;8.65;;;5.50;;
17832;SDS011;9041;49.718;21.798;2022-08-21T23:18:16;8.40;;;5.65;;
17832;SDS011;9041;49.718;21.798;2022-08-21T23:20:50;10.30;;;5.72;;
17832;SDS011;9041;49.718;21.798;2022-08-21T23:23:22;15.38;;;6.38;;
17832;SDS011;9041;49.718;21.798;2022-08-21T23:26:08;10.00;;;5.75;;
17832;SDS011;9041;49.718;21.798;2022-08-21T23:28:49;10.38;;;6.22;;
17832;SDS011;9041;49.718;21.798;2022-08-21T23:31:25;11.48;;;6.45;;
17832;SDS011;9041;49.718;21.798;2022-08-21T23:34:03;10.25;;;6.65;;
17832;SDS011;9041;49.718;21.798;2022-08-21T23:36:39;11.43;;;6.22;;
17832;SDS011;9041;49.718;21.798;2022-08-21T23:39:36;15.27;;;7.25;;
17832;SDS011;9041;49.718;21.798;2022-08-21T23:42:10;11.18;;;6.47;;
17832;SDS011;9041;49.718;21.798;2022-08-21T23:44:48;11.60;;;6.80;;
17832;SDS011;9041;49.718;21.798;2022-08-21T23:47:33;11.65;;;6.63;;
17832;SDS011;9041;49.718;21.798;2022-08-21T23:50:07;12.48;;;6.88;;
17832;SDS011;9041;49.718;21.798;2022-08-21T23:52:40;17.35;;;7.75;;
17832;SDS011;9041;49.718;21.798;2022-08-21T23:55:18;13.20;;;7.47;;
17832;SDS011;9041;49.718;21.798;2022-08-21T23:57:57;13.07;;;8.07;;
